sensor_id;sensor_type;location;lat;lon;timestamp;pressure;altitude;pressure_sealevel;temperature;humidity
32747;BME280;19118;50.860;13.662;2023-01-28T00:00:28;97623.84;;;-2.00;100.00
32747;BME280;19118;50.860;13.662;2023-01-28T00:05:32;97628.41;;;-1.91;100.00
32747;BME280;19118;50.860;13.662;2023-01-28T00:10:32;97637.22;;;-1.81;100.00
32747;BME280;19118;50.860;13.662;2023-01-28T00:15:33;97632.94;;;-1.82;100.00
32747;BME280;19118;50.860;13.662;2023-01-28T00:20:33;97626.00;;;-1.82;100.00
32747;BME280;19118;50.860;13.662;2023-01-28T00:25:34;97634.63;;;-1.81;100.00
32747;BME280;19118;50.860;13.662;2023-01-28T00:30:34;97633.69;;;-1.80;100.00
32747;BME280;19118;50.860;13.662;2023-01-28T00:35:36;97635.03;;;-1.74;100.00
32747;BME280;19118;50.860;13.662;2023-01-28T00:40:37;97627.84;;;-1.71;100.00
32747;BME280;19118;50.860;13.662;2023-01-28T00:45:38;97618.03;;;-1.66;100.00
32747;BME280;19118;50.860;13.662;2023-01-28T00:50:38;97629.31;;;-1.67;100.00
32747;BME280;19118;50.860;13.662;2023-01-28T00:55:39;97633.47;;;-1.64;100.00
32747;BME280;19118;50.860;13.662;2023-01-28T01:00:39;97630.53;;;-1.60;100.00
32747;BME280;19118;50.860;13.662;2023-01-28T01:05:40;97625.66;;;-1.52;100.00
32747;BME280;19118;50.860;13.662;2023-01-28T01:10:41;97631.91;;;-1.54;100.00
32747;BME280;19118;50.860;13.662;2023-01-28T01:15:42;97632.19;;;-1.59;100.00
32747;BME280;19118;50.860;13.662;2023-01-28T01:20:42;97640.31;;;-1.63;100.00
32747;BME280;19118;50.860;13.662;2023-01-28T01:25:44;97645.06;;;-1.70;100.00
32747;BME280;19118;50.860;13.662;2023-01-28T01:30:45;97652.13;;;-1.72;100.00
32747;BME280;19118;50.860;13.662;2023-01-28T01:35:52;97657.75;;;-1.78;100.00
32747;BME280;19118;50.860;13.662;2023-01-28T01:40:57;97668.53;;;-1.84;100.00
32747;BME280;19118;50.860;13.662;2023-01-28T01:45:59;97662.72;;;-1.88;100.00
32747;BME280;19118;50.860;13.662;2023-01-28T01:51:03;97660.84;;;-1.98;100.00
32747;BME280;19118;50.860;13.662;2023-01-28T01:56:09;97657.94;;;-2.07;100.00
32747;BME280;19118;50.860;13.662;2023-01-28T02:01:15;97659.38;;;-2.15;100.00
32747;BME280;19118;50.860;13.662;2023-01-28T02:06:15;97657.53;;;-2.13;100.00
32747;BME280;19118;50.860;13.662;2023-01-28T02:11:17;97666.44;;;-2.17;100.00
32747;BME280;19118;50.860;13.662;2023-01-28T02:16:17;97666.53;;;-2.19;100.00
32747;BME280;19118;50.860;13.662;2023-01-28T02:26:55;97661.91;;;-2.14;100.00
32747;BME280;19118;50.860;13.662;2023-01-28T02:32:14;97660.25;;;-2.15;100.00
32747;BME280;19118;50.860;13.662;2023-01-28T02:37:20;97658.56;;;-2.16;100.00
32747;BME280;19118;50.860;13.662;2023-01-28T02:42:25;97660.31;;;-2.16;100.00
32747;BME280;19118;50.860;13.662;2023-01-28T02:47:26;97675.72;;;-2.27;100.00
32747;BME280;19118;50.860;13.662;2023-01-28T02:53:15;97675.66;;;-2.26;100.00
32747;BME280;19118;50.860;13.662;2023-01-28T02:58:45;97678.31;;;-2.27;100.00
32747;BME280;19118;50.860;13.662;2023-01-28T03:03:55;97670.28;;;-2.23;100.00
32747;BME280;19118;50.860;13.662;2023-01-28T03:09:00;97680.41;;;-2.20;100.00
32747;BME280;19118;50.860;13.662;2023-01-28T03:14:21;97680.31;;;-2.31;100.00
32747;BME280;19118;50.860;13.662;2023-01-28T03:19:41;97687.13;;;-2.30;100.00
32747;BME280;19118;50.860;13.662;2023-01-28T03:25:01;97681.97;;;-2.30;100.00
32747;BME280;19118;50.860;13.662;2023-01-28T03:30:26;97688.63;;;-2.26;100.00
32747;BME280;19118;50.860;13.662;2023-01-28T03:35:53;97691.72;;;-2.21;100.00
32747;BME280;19118;50.860;13.662;2023-01-28T03:41:12;97703.53;;;-2.17;100.00
32747;BME280;19118;50.860;13.662;2023-01-28T03:46:21;97697.50;;;-2.17;100.00
32747;BME280;19118;50.860;13.662;2023-01-28T03:51:21;97699.81;;;-2.13;100.00
32747;BME280;19118;50.860;13.662;2023-01-28T03:56:22;97699.81;;;-2.13;100.00
32747;BME280;19118;50.860;13.662;2023-01-28T04:01:26;97704.19;;;-2.00;100.00
32747;BME280;19118;50.860;13.662;2023-01-28T04:06:27;97705.72;;;-2.11;100.00
32747;BME280;19118;50.860;13.662;2023-01-28T04:11:47;97707.88;;;-2.17;100.00
32747;BME280;19118;50.860;13.662;2023-01-28T04:16:53;97701.63;;;-2.27;100.00
32747;BME280;19118;50.860;13.662;2023-01-28T04:21:58;97714.50;;;-2.26;100.00
32747;BME280;19118;50.860;13.662;2023-01-28T04:26:59;97711.59;;;-2.34;100.00
32747;BME280;19118;50.860;13.662;2023-01-28T04:32:00;97709.69;;;-2.45;100.00
32747;BME280;19118;50.860;13.662;2023-01-28T04:37:09;97703.69;;;-2.45;100.00
32747;BME280;19118;50.860;13.662;2023-01-28T04:42:42;97715.50;;;-2.41;100.00
32747;BME280;19118;50.860;13.662;2023-01-28T04:48:03;97712.06;;;-2.42;100.00
32747;BME280;19118;50.860;13.662;2023-01-28T04:53:14;97720.22;;;-2.60;100.00
32747;BME280;19118;50.860;13.662;2023-01-28T04:58:44;97737.97;;;-2.69;100.00
32747;BME280;19118;50.860;13.662;2023-01-28T05:03:48;97736.50;;;-2.73;100.00
32747;BME280;19118;50.860;13.662;2023-01-28T05:08:56;97744.09;;;-2.84;100.00
32747;BME280;19118;50.860;13.662;2023-01-28T05:13:57;97744.13;;;-2.98;100.00
32747;BME280;19118;50.860;13.662;2023-01-28T05:19:02;97749.63;;;-3.03;100.00
32747;BME280;19118;50.860;13.662;2023-01-28T05:24:08;97751.38;;;-3.17;100.00
32747;BME280;19118;50.860;13.662;2023-01-28T05:29:09;97751.94;;;-3.27;100.00
32747;BME280;19118;50.860;13.662;2023-01-28T05:34:13;97751.28;;;-3.30;100.00
32747;BME280;19118;50.860;13.662;2023-01-28T05:39:13;97761.00;;;-3.34;100.00
32747;BME280;19118;50.860;13.662;2023-01-28T05:44:15;97762.00;;;-3.36;100.00
32747;BME280;19118;50.860;13.662;2023-01-28T05:49:34;97765.25;;;-3.47;100.00
32747;BME280;19118;50.860;13.662;2023-01-28T05:54:57;97751.00;;;-3.54;100.00
32747;BME280;19118;50.860;13.662;2023-01-28T05:59:58;97752.56;;;-3.52;100.00
32747;BME280;19118;50.860;13.662;2023-01-28T06:05:00;97763.19;;;-3.70;100.00
32747;BME280;19118;50.860;13.662;2023-01-28T06:10:00;97773.31;;;-3.82;100.00
32747;BME280;19118;50.860;13.662;2023-01-28T06:15:01;97778.84;;;-3.88;100.00
32747;BME280;19118;50.860;13.662;2023-01-28T06:20:16;97786.47;;;-4.00;100.00
32747;BME280;19118;50.860;13.662;2023-01-28T06:25:17;97788.94;;;-3.99;100.00
32747;BME280;19118;50.860;13.662;2023-01-28T06:30:18;97795.22;;;-4.03;100.00
32747;BME280;19118;50.860;13.662;2023-01-28T06:35:19;97799.97;;;-4.11;100.00
32747;BME280;19118;50.860;13.662;2023-01-28T06:40:19;97805.16;;;-4.11;100.00
32747;BME280;19118;50.860;13.662;2023-01-28T06:45:21;97799.97;;;-4.11;100.00
32747;BME280;19118;50.860;13.662;2023-01-28T06:50:22;97805.81;;;-4.07;100.00
32747;BME280;19118;50.860;13.662;2023-01-28T06:55:22;97816.31;;;-4.11;100.00
32747;BME280;19118;50.860;13.662;2023-01-28T07:00:23;97810.81;;;-4.20;100.00
32747;BME280;19118;50.860;13.662;2023-01-28T07:05:23;97811.94;;;-4.24;100.00
32747;BME280;19118;50.860;13.662;2023-01-28T07:10:24;97811.00;;;-4.23;100.00
32747;BME280;19118;50.860;13.662;2023-01-28T07:15:24;97814.00;;;-4.15;100.00
32747;BME280;19118;50.860;13.662;2023-01-28T07:20:24;97829.72;;;-4.20;100.00
32747;BME280;19118;50.860;13.662;2023-01-28T07:25:25;97816.44;;;-4.28;100.00
32747;BME280;19118;50.860;13.662;2023-01-28T07:30:25;97818.34;;;-4.31;100.00
32747;BME280;19118;50.860;13.662;2023-01-28T07:35:26;97820.00;;;-4.30;100.00
32747;BME280;19118;50.860;13.662;2023-01-28T07:40:27;97830.91;;;-4.25;100.00
32747;BME280;19118;50.860;13.662;2023-01-28T07:45:28;97828.53;;;-4.28;100.00
32747;BME280;19118;50.860;13.662;2023-01-28T07:50:32;97840.66;;;-4.30;100.00
32747;BME280;19118;50.860;13.662;2023-01-28T07:55:34;97834.44;;;-4.26;100.00
32747;BME280;19118;50.860;13.662;2023-01-28T08:00:36;97828.66;;;-4.31;100.00
32747;BME280;19118;50.860;13.662;2023-01-28T08:05:40;97824.78;;;-4.38;100.00
32747;BME280;19118;50.860;13.662;2023-01-28T08:10:42;97829.34;;;-4.44;100.00
32747;BME280;19118;50.860;13.662;2023-01-28T08:15:43;97830.50;;;-4.33;100.00
32747;BME280;19118;50.860;13.662;2023-01-28T08:20:44;97833.66;;;-4.13;100.00
32747;BME280;19118;50.860;13.662;2023-01-28T08:25:47;97836.13;;;-4.11;100.00
32747;BME280;19118;50.860;13.662;2023-01-28T08:30:47;97821.09;;;-4.19;100.00
32747;BME280;19118;50.860;13.662;2023-01-28T08:35:48;97828.34;;;-4.25;100.00
32747;BME280;19118;50.860;13.662;2023-01-28T08:40:48;97823.81;;;-4.22;100.00
32747;BME280;19118;50.860;13.662;2023-01-28T08:45:49;97824.56;;;-4.04;100.00
32747;BME280;19118;50.860;13.662;2023-01-28T08:50:50;97819.94;;;-3.99;100.00
32747;BME280;19118;50.860;13.662;2023-01-28T08:55:50;97835.75;;;-3.89;100.00
32747;BME280;19118;50.860;13.662;2023-01-28T09:00:50;97837.41;;;-3.72;100.00
32747;BME280;19118;50.860;13.662;2023-01-28T09:05:51;97837.59;;;-3.61;100.00
32747;BME280;19118;50.860;13.662;2023-01-28T09:10:58;97853.34;;;-3.22;100.00
32747;BME280;19118;50.860;13.662;2023-01-28T09:15:59;97853.44;;;-3.37;100.00
32747;BME280;19118;50.860;13.662;2023-01-28T09:20:59;97866.38;;;-3.67;100.00
32747;BME280;19118;50.860;13.662;2023-01-28T09:25:59;97861.78;;;-3.62;100.00
32747;BME280;19118;50.860;13.662;2023-01-28T09:31:05;97864.31;;;-3.32;100.00
32747;BME280;19118;50.860;13.662;2023-01-28T09:36:07;97867.00;;;-3.19;100.00
32747;BME280;19118;50.860;13.662;2023-01-28T09:41:33;97875.72;;;-2.78;100.00
32747;BME280;19118;50.860;13.662;2023-01-28T09:46:40;97866.66;;;-2.85;100.00
32747;BME280;19118;50.860;13.662;2023-01-28T09:51:48;97865.66;;;-3.55;100.00
32747;BME280;19118;50.860;13.662;2023-01-28T09:56:55;97866.75;;;-3.01;100.00
32747;BME280;19118;50.860;13.662;2023-01-28T10:02:45;97875.91;;;-2.95;100.00
32747;BME280;19118;50.860;13.662;2023-01-28T10:18:33;97868.22;;;-2.54;100.00
32747;BME280;19118;50.860;13.662;2023-01-28T10:23:43;97872.88;;;-2.32;100.00
32747;BME280;19118;50.860;13.662;2023-01-28T10:28:51;97870.75;;;-2.81;100.00
32747;BME280;19118;50.860;13.662;2023-01-28T10:33:53;97878.28;;;-3.06;100.00
32747;BME280;19118;50.860;13.662;2023-01-28T10:38:53;97884.69;;;-2.83;100.00
32747;BME280;19118;50.860;13.662;2023-01-28T10:43:55;97883.84;;;-3.12;100.00
32747;BME280;19118;50.860;13.662;2023-01-28T10:54:23;97899.22;;;-2.81;100.00
32747;BME280;19118;50.860;13.662;2023-01-28T10:59:29;97901.75;;;-3.24;100.00
32747;BME280;19118;50.860;13.662;2023-01-28T11:04:32;97900.00;;;-3.09;100.00
32747;BME280;19118;50.860;13.662;2023-01-28T11:09:36;97908.78;;;-3.26;100.00
32747;BME280;19118;50.860;13.662;2023-01-28T11:14:37;97904.53;;;-3.12;100.00
32747;BME280;19118;50.860;13.662;2023-01-28T11:19:37;97892.72;;;-2.59;100.00
32747;BME280;19118;50.860;13.662;2023-01-28T11:24:38;97902.66;;;-2.39;100.00
32747;BME280;19118;50.860;13.662;2023-01-28T11:29:39;97891.81;;;-2.58;100.00
32747;BME280;19118;50.860;13.662;2023-01-28T11:34:48;97899.38;;;-2.84;100.00
32747;BME280;19118;50.860;13.662;2023-01-28T11:40:13;97891.53;;;-2.82;100.00
32747;BME280;19118;50.860;13.662;2023-01-28T11:45:30;97892.47;;;-3.42;100.00
32747;BME280;19118;50.860;13.662;2023-01-28T11:50:41;97874.78;;;-3.19;100.00
32747;BME280;19118;50.860;13.662;2023-01-28T11:56:04;97870.91;;;-3.12;100.00
32747;BME280;19118;50.860;13.662;2023-01-28T12:06:35;97865.72;;;-3.27;100.00
32747;BME280;19118;50.860;13.662;2023-01-28T12:11:54;97869.94;;;-3.40;100.00
32747;BME280;19118;50.860;13.662;2023-01-28T12:17:40;97872.25;;;-3.49;100.00
32747;BME280;19118;50.860;13.662;2023-01-28T12:22:57;97862.03;;;-3.23;100.00
32747;BME280;19118;50.860;13.662;2023-01-28T12:28:06;97877.31;;;-3.04;100.00
32747;BME280;19118;50.860;13.662;2023-01-28T12:38:47;97853.53;;;-2.96;100.00
32747;BME280;19118;50.860;13.662;2023-01-28T12:43:58;97863.44;;;-3.03;100.00
32747;BME280;19118;50.860;13.662;2023-01-28T12:49:05;97862.41;;;-3.00;100.00
32747;BME280;19118;50.860;13.662;2023-01-28T12:54:32;97868.47;;;-3.30;100.00
32747;BME280;19118;50.860;13.662;2023-01-28T12:59:48;97858.44;;;-3.20;100.00
32747;BME280;19118;50.860;13.662;2023-01-28T13:05:16;97858.13;;;-3.30;100.00
32747;BME280;19118;50.860;13.662;2023-01-28T13:10:28;97862.88;;;-3.66;100.00
32747;BME280;19118;50.860;13.662;2023-01-28T13:15:29;97861.06;;;-3.50;100.00
32747;BME280;19118;50.860;13.662;2023-01-28T13:20:50;97856.47;;;-3.45;100.00
32747;BME280;19118;50.860;13.662;2023-01-28T13:25:53;97857.94;;;-3.41;100.00
32747;BME280;19118;50.860;13.662;2023-01-28T13:31:06;97864.09;;;-3.58;100.00
32747;BME280;19118;50.860;13.662;2023-01-28T13:41:17;97869.78;;;-3.37;100.00
32747;BME280;19118;50.860;13.662;2023-01-28T13:46:28;97863.47;;;-3.47;100.00
32747;BME280;19118;50.860;13.662;2023-01-28T13:51:32;97880.34;;;-3.56;100.00
32747;BME280;19118;50.860;13.662;2023-01-28T14:07:29;97889.88;;;-3.42;100.00
32747;BME280;19118;50.860;13.662;2023-01-28T14:18:04;97904.03;;;-3.63;100.00
32747;BME280;19118;50.860;13.662;2023-01-28T14:23:19;97907.91;;;-3.86;100.00
32747;BME280;19118;50.860;13.662;2023-01-28T14:28:38;97902.72;;;-3.70;100.00
32747;BME280;19118;50.860;13.662;2023-01-28T14:33:42;97904.34;;;-3.84;100.00
32747;BME280;19118;50.860;13.662;2023-01-28T14:38:43;97908.84;;;-3.87;100.00
32747;BME280;19118;50.860;13.662;2023-01-28T14:43:45;97901.91;;;-3.71;100.00
32747;BME280;19118;50.860;13.662;2023-01-28T14:49:05;97899.50;;;-3.90;100.00
32747;BME280;19118;50.860;13.662;2023-01-28T14:54:19;97900.75;;;-3.97;100.00
32747;BME280;19118;50.860;13.662;2023-01-28T14:59:44;97902.19;;;-3.91;100.00
32747;BME280;19118;50.860;13.662;2023-01-28T15:04:48;97896.47;;;-3.96;100.00
32747;BME280;19118;50.860;13.662;2023-01-28T15:15:08;97914.34;;;-4.09;100.00
32747;BME280;19118;50.860;13.662;2023-01-28T15:20:15;97893.88;;;-4.12;100.00
32747;BME280;19118;50.860;13.662;2023-01-28T15:25:19;97901.84;;;-4.01;100.00
32747;BME280;19118;50.860;13.662;2023-01-28T15:30:24;97895.13;;;-4.19;100.00
32747;BME280;19118;50.860;13.662;2023-01-28T15:35:24;97898.63;;;-4.20;100.00
32747;BME280;19118;50.860;13.662;2023-01-28T15:40:25;97900.03;;;-4.30;100.00
32747;BME280;19118;50.860;13.662;2023-01-28T15:45:26;97894.53;;;-4.24;100.00
32747;BME280;19118;50.860;13.662;2023-01-28T15:50:27;97888.47;;;-4.39;100.00
32747;BME280;19118;50.860;13.662;2023-01-28T15:55:32;97884.81;;;-4.35;100.00
32747;BME280;19118;50.860;13.662;2023-01-28T16:00:34;97882.66;;;-4.27;100.00
32747;BME280;19118;50.860;13.662;2023-01-28T16:05:40;97868.16;;;-4.29;100.00
32747;BME280;19118;50.860;13.662;2023-01-28T16:10:41;97871.25;;;-4.38;100.00
32747;BME280;19118;50.860;13.662;2023-01-28T16:15:46;97862.81;;;-4.26;100.00
32747;BME280;19118;50.860;13.662;2023-01-28T16:20:47;97868.41;;;-4.18;100.00
32747;BME280;19118;50.860;13.662;2023-01-28T16:25:58;97867.00;;;-4.40;100.00
32747;BME280;19118;50.860;13.662;2023-01-28T16:30:59;97864.50;;;-4.41;100.00
32747;BME280;19118;50.860;13.662;2023-01-28T16:35:59;97875.56;;;-4.39;100.00
32747;BME280;19118;50.860;13.662;2023-01-28T16:40:59;97892.47;;;-4.49;100.00
32747;BME280;19118;50.860;13.662;2023-01-28T16:46:00;97886.47;;;-4.50;100.00
32747;BME280;19118;50.860;13.662;2023-01-28T16:51:00;97894.78;;;-4.45;100.00
32747;BME280;19118;50.860;13.662;2023-01-28T16:56:00;97898.19;;;-4.44;100.00
32747;BME280;19118;50.860;13.662;2023-01-28T17:01:01;97902.97;;;-4.36;100.00
32747;BME280;19118;50.860;13.662;2023-01-28T17:06:02;97911.28;;;-4.63;100.00
32747;BME280;19118;50.860;13.662;2023-01-28T17:11:02;97903.03;;;-4.54;100.00
32747;BME280;19118;50.860;13.662;2023-01-28T17:16:03;97897.63;;;-4.33;100.00
32747;BME280;19118;50.860;13.662;2023-01-28T17:21:04;97900.13;;;-4.32;100.00
32747;BME280;19118;50.860;13.662;2023-01-28T17:26:07;97904.22;;;-4.28;100.00
32747;BME280;19118;50.860;13.662;2023-01-28T17:31:11;97917.94;;;-4.43;100.00
32747;BME280;19118;50.860;13.662;2023-01-28T17:36:11;97933.25;;;-4.56;100.00
32747;BME280;19118;50.860;13.662;2023-01-28T17:41:12;97934.59;;;-4.49;100.00
32747;BME280;19118;50.860;13.662;2023-01-28T17:46:14;97934.50;;;-4.47;100.00
32747;BME280;19118;50.860;13.662;2023-01-28T17:51:15;97964.91;;;-4.36;100.00
32747;BME280;19118;50.860;13.662;2023-01-28T17:56:20;97970.38;;;-4.43;100.00
32747;BME280;19118;50.860;13.662;2023-01-28T18:01:22;97967.66;;;-4.40;100.00
32747;BME280;19118;50.860;13.662;2023-01-28T18:06:23;97977.63;;;-4.49;100.00
32747;BME280;19118;50.860;13.662;2023-01-28T18:11:24;97974.06;;;-4.47;100.00
32747;BME280;19118;50.860;13.662;2023-01-28T18:16:24;97967.97;;;-4.46;100.00
32747;BME280;19118;50.860;13.662;2023-01-28T18:21:36;97962.97;;;-4.49;100.00
32747;BME280;19118;50.860;13.662;2023-01-28T18:26:37;97959.66;;;-4.51;100.00
32747;BME280;19118;50.860;13.662;2023-01-28T18:31:38;97955.69;;;-4.41;100.00
32747;BME280;19118;50.860;13.662;2023-01-28T18:36:38;97947.94;;;-4.09;100.00
32747;BME280;19118;50.860;13.662;2023-01-28T18:41:39;97959.59;;;-4.02;100.00
32747;BME280;19118;50.860;13.662;2023-01-28T18:46:40;97963.75;;;-4.31;100.00
32747;BME280;19118;50.860;13.662;2023-01-28T18:51:40;97971.06;;;-4.39;100.00
32747;BME280;19118;50.860;13.662;2023-01-28T18:56:42;97969.91;;;-4.33;100.00
32747;BME280;19118;50.860;13.662;2023-01-28T19:01:43;97980.59;;;-4.24;100.00
32747;BME280;19118;50.860;13.662;2023-01-28T19:06:46;97983.56;;;-4.31;100.00
32747;BME280;19118;50.860;13.662;2023-01-28T19:11:47;98003.25;;;-4.13;100.00
32747;BME280;19118;50.860;13.662;2023-01-28T19:16:49;98017.63;;;-4.41;100.00
32747;BME280;19118;50.860;13.662;2023-01-28T19:21:49;98030.84;;;-4.47;100.00
32747;BME280;19118;50.860;13.662;2023-01-28T19:26:50;98036.75;;;-4.45;100.00
32747;BME280;19118;50.860;13.662;2023-01-28T19:31:50;98036.19;;;-4.34;100.00
32747;BME280;19118;50.860;13.662;2023-01-28T19:36:50;98027.41;;;-4.30;100.00
32747;BME280;19118;50.860;13.662;2023-01-28T19:41:51;98028.38;;;-4.32;100.00
32747;BME280;19118;50.860;13.662;2023-01-28T19:46:51;98017.41;;;-4.20;100.00
32747;BME280;19118;50.860;13.662;2023-01-28T19:51:51;98013.22;;;-4.23;100.00
32747;BME280;19118;50.860;13.662;2023-01-28T19:56:52;98005.53;;;-4.07;100.00
32747;BME280;19118;50.860;13.662;2023-01-28T20:01:52;97993.22;;;-4.19;100.00
32747;BME280;19118;50.860;13.662;2023-01-28T20:06:52;98001.25;;;-4.24;100.00
32747;BME280;19118;50.860;13.662;2023-01-28T20:11:53;97998.25;;;-4.16;100.00
32747;BME280;19118;50.860;13.662;2023-01-28T20:16:53;98004.91;;;-4.12;100.00
32747;BME280;19118;50.860;13.662;2023-01-28T20:21:54;97988.94;;;-4.19;100.00
32747;BME280;19118;50.860;13.662;2023-01-28T20:26:54;97991.44;;;-4.17;100.00
32747;BME280;19118;50.860;13.662;2023-01-28T20:31:54;97982.03;;;-4.18;100.00
32747;BME280;19118;50.860;13.662;2023-01-28T20:36:55;97984.25;;;-4.12;100.00
32747;BME280;19118;50.860;13.662;2023-01-28T20:41:55;97968.75;;;-4.12;100.00
32747;BME280;19118;50.860;13.662;2023-01-28T20:46:57;97972.44;;;-4.16;100.00
32747;BME280;19118;50.860;13.662;2023-01-28T20:51:57;97958.78;;;-4.18;100.00
32747;BME280;19118;50.860;13.662;2023-01-28T20:56:57;97962.25;;;-4.19;100.00
32747;BME280;19118;50.860;13.662;2023-01-28T21:01:58;97980.59;;;-4.24;100.00
32747;BME280;19118;50.860;13.662;2023-01-28T21:06:59;97976.91;;;-4.20;100.00
32747;BME280;19118;50.860;13.662;2023-01-28T21:12:00;97986.34;;;-4.19;100.00
32747;BME280;19118;50.860;13.662;2023-01-28T21:17:00;97983.44;;;-4.13;100.00
32747;BME280;19118;50.860;13.662;2023-01-28T21:22:01;97992.44;;;-4.04;100.00
32747;BME280;19118;50.860;13.662;2023-01-28T21:27:01;98009.50;;;-4.17;100.00
32747;BME280;19118;50.860;13.662;2023-01-28T21:32:01;98012.75;;;-4.29;100.00
32747;BME280;19118;50.860;13.662;2023-01-28T21:37:02;98021.06;;;-4.24;100.00
32747;BME280;19118;50.860;13.662;2023-01-28T21:42:02;98028.81;;;-4.24;100.00
32747;BME280;19118;50.860;13.662;2023-01-28T21:47:03;98021.38;;;-4.30;100.00
32747;BME280;19118;50.860;13.662;2023-01-28T21:52:03;98031.56;;;-4.27;100.00
32747;BME280;19118;50.860;13.662;2023-01-28T21:57:05;98030.16;;;-4.17;100.00
32747;BME280;19118;50.860;13.662;2023-01-28T22:02:10;98015.72;;;-4.21;100.00
32747;BME280;19118;50.860;13.662;2023-01-28T22:07:13;98006.88;;;-4.33;100.00
32747;BME280;19118;50.860;13.662;2023-01-28T22:12:16;98015.06;;;-4.25;100.00
32747;BME280;19118;50.860;13.662;2023-01-28T22:17:16;98010.00;;;-4.26;100.00
32747;BME280;19118;50.860;13.662;2023-01-28T22:22:18;98002.59;;;-4.17;100.00
32747;BME280;19118;50.860;13.662;2023-01-28T22:27:18;98016.56;;;-4.21;100.00
32747;BME280;19118;50.860;13.662;2023-01-28T22:32:18;97998.75;;;-4.25;100.00
32747;BME280;19118;50.860;13.662;2023-01-28T22:37:19;97996.00;;;-4.22;100.00
32747;BME280;19118;50.860;13.662;2023-01-28T22:42:19;97988.84;;;-4.17;100.00
32747;BME280;19118;50.860;13.662;2023-01-28T22:47:19;97977.91;;;-4.22;100.00
32747;BME280;19118;50.860;13.662;2023-01-28T22:52:20;97985.25;;;-4.15;100.00
32747;BME280;19118;50.860;13.662;2023-01-28T22:57:20;97985.09;;;-4.12;100.00
32747;BME280;19118;50.860;13.662;2023-01-28T23:02:21;97985.19;;;-4.13;100.00
32747;BME280;19118;50.860;13.662;2023-01-28T23:07:21;97981.59;;;-4.26;100.00
32747;BME280;19118;50.860;13.662;2023-01-28T23:12:21;97990.25;;;-4.27;100.00
32747;BME280;19118;50.860;13.662;2023-01-28T23:17:22;97973.75;;;-4.25;100.00
32747;BME280;19118;50.860;13.662;2023-01-28T23:22:40;97995.09;;;-4.05;100.00
32747;BME280;19118;50.860;13.662;2023-01-28T23:27:59;97986.09;;;-4.14;100.00
32747;BME280;19118;50.860;13.662;2023-01-28T23:33:00;97989.25;;;-4.25;100.00
32747;BME280;19118;50.860;13.662;2023-01-28T23:38:00;97988.59;;;-4.28;100.00
32747;BME280;19118;50.860;13.662;2023-01-28T23:43:01;97983.56;;;-4.31;100.00
32747;BME280;19118;50.860;13.662;2023-01-28T23:48:01;97990.91;;;-4.24;100.00
32747;BME280;19118;50.860;13.662;2023-01-28T23:53:03;97983.56;;;-4.31;100.00
32747;BME280;19118;50.860;13.662;2023-01-28T23:58:12;97989.25;;;-4.25;100.00
